Latest Weather Observations for Lord Howe Island

IDN60801

Issued at 3:04 pm EDT Saturday 13 February 2016 (issued every 30 minutes, with the page automatically refreshed every 10 minutes)

About weather observations | Map of weather stations | Latest weather observations for NSW | Other Formats
Station Details ID: 200839 Name: LORD HOWE ISLAND AERO Lat: -31.54 Lon: 159.08 Height: 5.0 m
Data from the previous 72 hours. | See also: Recent months at Lord Howe Island
Date/Time
EDT
Temp
°C
App
Temp
°C
Dew
Point
Rel
Hum
%
Delta-T
°C
Wind Press
QNH
hPa
Press
MSL
hPa
Rain
since 9 am
mm
Dir
 
Spd
km/h
Gust
km/h
Spd
kts
Gust
kts
13/02:30pm 24.9 23.7 20.8 78 2.7 E 28 39 15 21 1012.0 - 0.0
13/02:00pm 24.8 23.2 20.8 78 2.6 E 30 39 16 21 1012.1 - 0.0
13/01:37pm 24.9 23.7 20.8 78 2.7 E 28 39 15 21 1012.4 - 0.0
13/01:30pm 24.8 23.5 20.7 78 2.7 E 28 39 15 21 1012.6 - 0.0
13/01:23pm 24.2 22.8 20.4 79 2.5 E 28 41 15 22 1012.7 - 0.0
13/01:00pm 24.9 23.2 20.6 77 2.8 E 30 41 16 22 1012.8 - 0.0
13/12:30pm 25.1 23.4 20.5 75 3.0 E 30 43 16 23 1012.8 - 0.0
13/12:00pm 25.0 22.9 20.6 76 2.9 E 32 43 17 23 1013.1 1013.1 0.0
13/11:30am 24.9 22.7 20.3 75 3.0 E 32 39 17 21 1013.6 - 0.0
13/11:00am 25.0 23.2 20.4 75 3.0 E 30 39 16 21 1013.8 - 0.0
13/10:30am 24.6 22.2 20.0 75 3.0 E 32 44 17 24 1013.7 - 0.0
13/10:00am 24.5 22.0 19.7 74 3.1 E 32 43 17 23 1013.5 - 0.0
13/09:30am 24.3 21.4 19.3 73 3.2 E 33 44 18 24 1013.5 - 0.0
13/09:00am 24.1 21.2 19.2 74 3.1 E 33 43 18 23 1013.4 1013.4 0.0
13/08:30am 23.5 20.5 19.1 76 2.8 E 33 43 18 23 1013.8 - 0.0
13/08:00am 23.2 21.1 18.9 77 2.7 E 28 39 15 21 1013.8 - 0.0
13/07:30am 23.0 21.0 19.2 79 2.4 E 28 39 15 21 1013.7 - 0.0
13/07:00am 22.9 20.5 19.1 79 2.4 E 30 41 16 22 1013.3 - 0.0
13/06:30am 22.7 22.1 18.9 79 2.4 E 20 33 11 18 1012.8 - 0.0
13/06:00am 22.7 19.7 18.7 78 2.5 E 32 41 17 22 1012.7 1012.7 0.0
13/05:30am 22.7 19.9 19.1 80 2.3 E 32 39 17 21 1012.7 - 0.0
13/05:00am 22.7 20.3 19.1 80 2.3 E 30 41 16 22 1012.8 - 0.0
13/04:30am 22.6 21.4 18.5 77 2.6 E 22 32 12 17 1012.9 - 0.0
13/04:00am 22.5 21.5 18.0 75 2.8 E 20 28 11 15 1013.1 - 0.0
13/03:30am 22.4 21.6 17.9 75 2.8 E 19 32 10 17 1013.0 - 0.0
13/03:00am 22.2 21.4 18.0 77 2.6 E 19 30 10 16 1013.3 1013.3 0.0
13/02:30am 22.3 21.9 18.0 76 2.7 E 17 26 9 14 1013.4 - 0.0
13/02:00am 22.3 21.6 17.4 74 3.0 E 17 26 9 14 1013.5 - 0.0
13/01:30am 22.2 22.5 17.9 76 2.7 ESE 13 20 7 11 1014.1 - 0.0
13/01:00am 22.0 22.3 17.8 77 2.6 E 13 24 7 13 1014.1 - 0.0
13/12:30am 22.3 21.1 17.6 75 2.9 E 20 28 11 15 1014.5 - 0.0
13/12:00am 22.2 22.7 17.5 74 2.9 ESE 11 22 6 12 1014.7 1014.7 0.0
 
Date/Time
EDT
Temp
°C
App
Temp
°C
Dew
Point
Rel
Hum
%
Delta-T
°C
Wind Press
QNH
hPa
Press
MSL
hPa
Rain
since 9 am
mm
Dir
 
Spd
km/h
Gust
km/h
Spd
kts
Gust
kts
12/11:30pm 22.4 21.8 17.5 74 3.0 E 17 26 9 14 1014.9 - 0.0
12/11:00pm 22.3 21.7 17.6 75 2.9 E 17 26 9 14 1015.1 - 0.0
12/10:30pm 22.2 22.2 18.0 77 2.6 E 15 26 8 14 1015.3 - 0.0
12/10:00pm 22.3 21.9 18.1 77 2.6 ESE 17 24 9 13 1015.5 - 0.0
12/09:30pm 22.2 21.9 18.2 78 2.5 E 17 28 9 15 1015.5 - 0.0
12/09:00pm 22.2 20.3 17.7 75 2.8 E 24 33 13 18 1015.4 1015.4 0.0
12/08:30pm 22.4 20.1 17.7 75 2.9 E 26 35 14 19 1015.4 - 0.0
12/08:00pm 22.4 20.1 17.7 75 2.9 E 26 35 14 19 1015.5 - 0.0
12/07:30pm 22.4 20.1 17.7 75 2.9 E 26 33 14 18 1015.3 - 0.0
12/07:00pm 22.6 19.7 17.1 71 3.4 E 28 35 15 19 1015.0 - 0.0
12/06:30pm 22.7 19.5 17.2 71 3.4 E 30 39 16 21 1014.7 - 0.0
12/06:00pm 22.9 19.3 17.2 70 3.5 E 32 39 17 21 1014.2 1014.2 0.0
12/05:30pm 23.2 19.8 17.6 71 3.5 E 32 39 17 21 1014.4 - 0.0
12/05:00pm 23.5 19.8 17.5 69 3.7 E 33 43 18 23 1014.2 - 0.0
12/04:30pm 23.6 19.9 17.5 68 3.8 E 33 41 18 22 1014.4 - 0.0
12/04:00pm 24.1 20.1 17.5 66 4.1 E 35 43 19 23 1014.4 - 0.0
12/03:30pm 24.1 19.8 17.9 68 3.9 E 37 44 20 24 1014.6 - 0.0
12/03:00pm 23.9 20.1 18.2 70 3.6 E 35 43 19 23 1014.5 1014.5 0.0
12/02:30pm 24.1 20.7 18.2 69 3.7 E 33 43 18 23 1014.7 - 0.0
12/02:00pm 23.6 20.2 18.2 71 3.4 E 33 41 18 22 1014.8 - 0.0
12/01:30pm 23.2 20.4 18.3 74 3.1 E 30 39 16 21 1014.9 - 0.0
12/01:10pm 22.8 20.0 18.3 76 2.8 E 30 48 16 26 1015.0 - 0.0
12/01:00pm 22.8 19.3 18.7 77 2.6 E 35 44 19 24 1015.2 - 0.0
12/12:30pm 23.3 19.4 18.7 75 2.9 E 37 46 20 25 1015.3 - 0.0
12/12:00pm 23.5 20.4 18.4 73 3.2 E 32 43 17 23 1015.5 1015.5 0.0
12/11:30am 23.5 20.7 19.1 76 2.8 E 32 48 17 26 1015.9 - 0.0
12/11:00am 23.2 20.6 19.6 80 2.3 E 32 50 17 27 1015.9 - 0.0
12/10:55am 23.1 20.6 19.7 81 2.2 E 32 50 17 27 1015.8 - 0.0
12/10:48am 22.9 20.1 19.5 81 2.2 E 33 44 18 24 1015.8 - 0.0
12/10:30am 23.3 20.7 19.4 79 2.5 E 32 43 17 23 1015.8 - 0.0
12/10:19am 23.1 20.8 19.3 79 2.4 E 30 48 16 26 1015.8 - 0.0
12/10:00am 22.8 19.9 19.3 80 2.2 E 33 50 18 27 1015.9 - 0.0
12/09:38am 22.8 20.9 19.3 80 2.2 E 28 46 15 25 1016.1 - 0.0
12/09:30am 23.1 20.6 18.8 77 2.7 E 30 41 16 22 1016.1 - 0.0
12/09:14am 23.4 20.6 18.3 73 3.2 E 30 48 16 26 1016.0 - 0.0
12/09:00am 23.0 19.8 18.2 74 3.0 E 32 - 17 - - 1016.0 0.0
12/08:55am 22.9 20.3 18.6 77 2.7 E 30 43 16 23 1016.0 - 0.0
12/08:30am 22.6 19.7 17.9 75 2.9 E 30 41 16 22 1016.1 - 0.0
12/08:03am 22.4 19.8 17.7 75 2.9 E 28 46 15 25 1016.0 - 0.0
12/08:00am 22.5 20.9 18.3 77 2.6 E 24 39 13 21 1015.9 - 0.0
12/07:36am 22.4 20.1 18.4 78 2.5 E 28 46 15 25 1015.8 - 0.0
12/07:31am 22.4 19.8 18.6 79 2.4 E 30 43 16 23 1015.7 - 0.0
12/07:30am 22.3 19.3 18.6 79 2.3 E 32 43 17 23 1015.7 - 0.0
12/07:20am 22.3 18.3 18.6 79 2.3 E 37 48 20 26 1015.6 - 0.0
12/07:00am 22.2 19.5 18.5 79 2.3 E 30 44 16 24 1015.5 - 0.0
12/06:30am 22.0 19.9 17.1 74 3.0 E 24 41 13 22 1015.3 - 0.0
12/06:00am 21.9 19.9 17.3 75 2.8 ESE 24 43 13 23 1015.1 1015.1 0.0
12/05:30am 21.8 19.7 17.2 75 2.8 E 24 39 13 21 1014.7 - 0.0
12/05:00am 21.9 22.0 17.5 76 2.7 SE 13 20 7 11 1014.8 - 0.0
12/04:30am 21.9 21.9 18.0 78 2.4 ESE 15 24 8 13 1014.7 - 0.0
12/04:00am 22.1 20.8 18.1 78 2.5 E 22 39 12 21 1014.6 - 0.0
12/03:30am 22.2 21.6 18.5 79 2.3 E 19 28 10 15 1014.6 - 0.0
12/03:00am 22.2 22.8 18.5 79 2.3 ESE 13 20 7 11 1014.7 1014.7 0.0
12/02:30am 22.1 22.6 18.3 79 2.4 ESE 13 24 7 13 1014.8 - 0.0
12/02:00am 22.1 23.2 18.1 78 2.5 SE 9 19 5 10 1015.1 - 0.0
12/01:58am 22.2 22.9 18.0 77 2.6 SE 11 19 6 10 1015.1 - 0.0
12/01:32am 22.4 21.5 18.2 77 2.6 E 20 28 11 15 1015.1 - 0.0
12/01:30am 22.3 21.1 18.3 78 2.5 E 22 32 12 17 1015.1 - 0.0
12/01:23am 22.3 21.5 18.5 79 2.4 E 20 32 11 17 1015.1 - 0.0
12/01:00am 22.5 20.2 18.5 78 2.5 E 28 35 15 19 1015.0 - 0.0
12/12:45am 22.6 20.4 18.6 78 2.5 E 28 35 15 19 1015.1 - 0.0
12/12:30am 22.6 20.8 18.8 79 2.4 E 26 33 14 18 1015.2 - 0.0
12/12:00am 22.6 19.9 18.5 77 2.6 E 30 35 16 19 1015.4 1015.4 0.0
 
Date/Time
EDT
Temp
°C
App
Temp
°C
Dew
Point
Rel
Hum
%
Delta-T
°C
Wind Press
QNH
hPa
Press
MSL
hPa
Rain
since 9 am
mm
Dir
 
Spd
km/h
Gust
km/h
Spd
kts
Gust
kts
11/11:30pm 22.7 21.1 19.1 80 2.3 E 26 33 14 18 1015.6 - 0.0
11/11:00pm 22.8 21.2 19.2 80 2.3 E 26 32 14 17 1015.9 - 0.0
11/10:30pm 22.9 20.7 18.6 77 2.7 E 28 35 15 19 1015.9 - 0.0
11/10:11pm 22.9 20.6 18.4 76 2.8 E 28 33 15 18 1015.9 - 0.0
11/10:00pm 22.9 20.6 18.4 76 2.8 E 28 35 15 19 1015.9 - 0.0
11/09:51pm 23.0 21.0 19.2 79 2.4 E 28 35 15 19 1015.8 - 0.0
11/09:30pm 22.8 20.6 18.7 77 2.6 E 28 35 15 19 1015.7 - 0.0
11/09:00pm 22.9 20.1 18.3 75 2.9 E 30 35 16 19 1015.5 1015.5 0.0
11/08:30pm 23.0 20.8 18.6 76 2.8 E 28 33 15 18 1015.3 - 0.0
11/08:00pm 22.6 21.3 18.1 76 2.8 E 22 33 12 18 1015.3 - 0.0
11/07:34pm 22.7 20.5 17.9 74 3.0 E 26 33 14 18 1015.3 - 0.0
11/07:30pm 22.7 20.5 17.9 74 3.0 E 26 33 14 18 1015.2 - 0.0
11/07:00pm 22.6 20.3 18.5 77 2.6 E 28 35 15 19 1014.9 - 0.0
11/06:31pm 23.0 21.7 18.2 74 3.0 E 22 33 12 18 1014.7 - 0.0
11/06:30pm 23.0 21.3 18.2 74 3.0 E 24 33 13 18 1014.7 - 0.0
11/06:00pm 23.1 21.0 18.1 73 3.1 E 26 32 14 17 1014.5 1014.5 0.0
11/05:50pm 23.6 21.6 18.4 72 3.3 E 26 33 14 18 1014.4 - 0.0
11/05:39pm 23.7 22.1 18.3 71 3.4 E 24 37 13 20 1014.4 - 0.0
11/05:30pm 23.5 21.8 18.2 72 3.3 E 24 39 13 21 1014.3 - 0.0
11/05:00pm 23.8 21.2 18.6 72 3.3 E 30 39 16 21 1014.2 - 0.0
11/04:30pm 23.8 21.8 18.2 71 3.5 E 26 39 14 21 1014.1 - 0.0
11/04:00pm 24.0 22.1 18.6 72 3.4 E 26 35 14 19 1014.3 - 0.0
11/03:30pm 24.1 21.4 18.4 70 3.6 E 30 35 16 19 1014.4 - 0.0
11/03:00pm 24.2 22.0 18.7 71 3.5 E 28 37 15 20 1014.5 1014.5 0.0
11/02:30pm 24.0 22.1 18.6 72 3.4 E 26 37 14 20 1014.7 - 0.0
11/02:00pm 23.8 21.0 19.1 75 3.0 E 32 41 17 22 1014.9 - 0.0
11/01:30pm 24.7 22.6 18.9 70 3.7 E 28 39 15 21 1015.0 - 0.0
11/01:00pm 24.6 21.7 18.8 70 3.7 E 32 39 17 21 1015.1 - 0.0
11/12:30pm 24.4 22.1 18.5 69 3.7 E 28 39 15 21 1015.4 - 0.0
11/12:00pm 24.4 21.7 18.5 69 3.7 E 30 37 16 20 1015.3 1015.3 0.0
11/11:30am 24.3 22.1 18.6 70 3.6 E 28 37 15 20 1015.5 - 0.0
11/11:00am 23.8 21.1 18.4 72 3.4 E 30 39 16 21 1015.6 - 0.0
11/10:30am 23.8 21.6 18.7 73 3.2 E 28 35 15 19 1015.7 - 0.0
11/10:00am 24.1 22.6 18.6 71 3.5 E 24 35 13 19 1015.5 - 0.0
11/09:30am 24.0 22.5 18.6 72 3.4 E 24 33 13 18 1015.4 - 0.0
11/09:00am 23.7 21.6 18.1 71 3.5 E 26 37 14 20 1015.4 1015.4 0.2
11/08:30am 23.1 21.4 18.1 73 3.1 E 24 33 13 18 1015.3 - 0.2
11/08:00am 22.7 20.5 17.9 74 3.0 E 26 35 14 19 1015.1 - 0.2
11/07:30am 22.5 21.6 18.3 77 2.6 E 20 28 11 15 1014.9 - 0.2
11/07:00am 22.3 21.5 18.1 77 2.6 E 19 30 10 16 1014.7 - 0.2
11/06:30am 22.0 22.2 17.6 76 2.7 ESE 13 20 7 11 1014.4 - 0.2
11/06:00am 21.8 22.3 17.4 76 2.7 SE 11 20 6 11 1014.2 1014.2 0.2
11/05:30am 21.7 21.1 17.5 77 2.6 E 17 26 9 14 1014.0 - 0.2
11/05:00am 21.7 21.5 17.7 78 2.5 ESE 15 28 8 15 1013.9 - 0.2
11/04:30am 21.9 21.1 17.9 78 2.5 E 19 30 10 16 1013.8 - 0.2
11/04:00am 21.6 21.7 17.5 77 2.5 ESE 13 24 7 13 1013.8 - 0.2
11/03:30am 21.6 21.6 17.2 76 2.7 ESE 13 20 7 11 1013.9 - 0.2
11/03:00am 21.6 21.4 17.5 77 2.5 ESE 15 26 8 14 1013.9 1013.9 0.2
11/02:30am 21.7 21.9 17.7 78 2.5 ESE 13 24 7 13 1014.0 - 0.2
11/02:00am 21.9 22.1 17.7 77 2.6 ESE 13 24 7 13 1014.2 - 0.2
11/01:30am 21.7 21.5 17.7 78 2.5 ESE 15 24 8 13 1014.4 - 0.2
11/01:00am 21.7 21.6 17.8 78 2.4 ESE 15 22 8 12 1014.5 - 0.2
11/12:30am 21.8 21.3 17.8 78 2.5 E 17 22 9 12 1014.7 - 0.2
11/12:00am 21.8 20.7 17.8 78 2.5 E 20 28 11 15 1015.0 1015.0 0.2
 
Date/Time
EDT
Temp
°C
App
Temp
°C
Dew
Point
Rel
Hum
%
Delta-T
°C
Wind Press
QNH
hPa
Press
MSL
hPa
Rain
since 9 am
mm
Dir
 
Spd
km/h
Gust
km/h
Spd
kts
Gust
kts
10/11:30pm 22.0 19.7 17.6 76 2.7 E 26 32 14 17 1015.2 - 0.2
10/11:00pm 22.0 20.3 18.1 78 2.4 E 24 32 13 17 1015.4 - 0.2
10/10:30pm 22.0 19.7 17.6 76 2.7 E 26 32 14 17 1015.6 - 0.2
10/10:00pm 22.2 20.8 18.0 77 2.6 E 22 32 12 17 1015.7 - 0.2
10/09:30pm 22.3 20.3 18.3 78 2.5 E 26 33 14 18 1015.6 - 0.2
10/09:00pm 22.3 20.9 18.0 76 2.7 E 22 28 12 15 1015.5 1015.5 0.2
10/08:30pm 22.3 20.2 18.1 77 2.6 E 26 32 14 17 1015.2 - 0.2
10/08:00pm 22.4 22.8 18.9 80 2.2 E 15 26 8 14 1014.9 - 0.2
10/07:30pm 22.5 20.2 18.5 78 2.5 E 28 37 15 20 1014.6 - 0.2
10/07:10pm 22.6 21.8 18.1 76 2.8 E 19 28 10 15 1014.3 - 0.2
10/07:00pm 22.6 22.2 18.1 76 2.8 ESE 17 28 9 15 1014.2 - 0.2
10/06:56pm 22.6 22.6 18.1 76 2.8 ESE 15 26 8 14 1014.2 - 0.2
10/06:52pm 22.6 22.2 18.1 76 2.8 E 17 30 9 16 1014.2 - 0.2
10/06:36pm 22.9 21.0 18.6 77 2.7 E 26 33 14 18 1014.1 - 0.2
10/06:30pm 22.8 21.5 18.2 75 2.9 E 22 33 12 18 1014.1 - 0.2
10/06:26pm 22.7 21.8 18.1 75 2.9 E 20 30 11 16 1014.1 - 0.2
10/06:00pm 22.8 22.5 18.2 75 2.9 E 17 28 9 15 1013.7 1013.7 0.2
10/05:54pm 22.8 22.0 18.0 74 3.0 E 19 30 10 16 1013.7 - 0.2
10/05:30pm 22.7 22.0 18.2 76 2.8 E 19 30 10 16 1013.6 - 0.2
10/05:00pm 23.1 22.5 18.8 77 2.7 E 20 35 11 19 1013.5 - 0.2
10/04:30pm 23.6 21.7 18.5 73 3.2 E 26 39 14 21 1013.4 - 0.2
10/04:00pm 24.1 22.2 18.6 71 3.5 E 26 39 14 21 1013.3 - 0.2
10/03:30pm 23.7 21.8 18.6 73 3.2 E 26 37 14 20 1013.3 - 0.2

Other Formats:

Comma delimited format used in spreadsheet applications
http://www.bom.gov.au/fwo/IDN60801/IDN60801.94995.axf

JavaScript Object Notation format (JSON) in row-major order
http://www.bom.gov.au/fwo/IDN60801/IDN60801.94995.json